Time;durP1;ratioP1;P1;durP2;ratioP2;P2;SDS_P1;SDS_P2;PMS_P1;PMS_P2;Temp;Humidity;BMP_temperature;BMP_pressure;BME280_temperature;BME280_humidity;BME280_pressure;Samples;Min_cycle;Max_cycle;Signal;HPM_P1;HPM_P2
2022/12/02 00:01:15;;;;;;;;;;;3.10;99.90;;;;;;5051059;28;19976;-64
2022/12/02 00:03:40;;;;;;;;;;;3.10;99.90;;;;;;5045947;28;19972;-65
2022/12/02 00:06:12;;;;;;;;;;;3.10;99.90;;;;;;5051710;28;19984;-64
2022/12/02 00:08:38;;;;;;;;;;;3.10;99.90;;;;;;5059894;28;19933;-64
2022/12/02 00:11:05;;;;;;;;;;;3.10;99.90;;;;;;5051926;28;19954;-65
2022/12/02 00:13:41;;;;;;;;;;;3.10;99.90;;;;;;5054366;28;19992;-65
2022/12/02 00:16:18;;;;;;;;;;;3.10;99.90;;;;;;5056164;28;19929;-65
2022/12/02 00:18:44;;;;;;;;;;;3.20;99.90;;;;;;5067697;28;19925;-66
2022/12/02 00:21:09;;;;;;;;;;;3.10;99.90;;;;;;5051738;28;19932;-65
2022/12/02 00:23:35;;;;;;;;;;;3.10;99.90;;;;;;5030988;28;19925;-65
2022/12/02 00:26:01;;;;;;;;;;;3.70;99.90;;;;;;5033483;28;19975;-65
2022/12/02 00:28:26;;;;;;;;;;;3.10;99.90;;;;;;5063829;27;19929;-65
2022/12/02 00:30:52;;;;;;;;;;;3.20;99.90;;;;;;5064131;27;19979;-64
2022/12/02 00:33:17;;;;;;;;;;;3.90;99.90;;;;;;5035715;28;19932;-69
2022/12/02 00:35:43;;;;;;;;;;;3.20;99.90;;;;;;5049064;28;19928;-64
2022/12/02 00:38:09;;;;;;;;;;;3.10;99.90;;;;;;5010821;28;19974;-64
2022/12/02 00:40:34;;;;;;;;;;;3.10;99.90;;;;;;5043181;28;19929;-65
2022/12/02 00:48:30;;;;;;;;;;;3.10;99.90;;;;;;5024052;28;20691;-65
2022/12/02 00:50:55;;;;;;;;;;;3.10;99.90;;;;;;5044602;27;19939;-65
2022/12/02 00:53:21;;;;;;;;;;;3.40;99.90;;;;;;5043889;28;19932;-65
2022/12/02 00:55:46;;;;;;;;;;;3.10;99.90;;;;;;5063208;27;19924;-65
2022/12/02 00:58:12;;;;;;;;;;;3.50;99.90;;;;;;5051866;28;19948;-66
2022/12/02 01:00:38;;;;;;;;;;;3.10;99.90;;;;;;5043609;28;19933;-64
2022/12/02 01:03:03;;;;;;;;;;;3.10;99.90;;;;;;5044838;28;19931;-65
2022/12/02 01:05:29;;;;;;;;;;;3.30;99.90;;;;;;5057864;28;19936;-65
2022/12/02 01:07:54;;;;;;;;;;;3.10;99.90;;;;;;5038292;28;19940;-65
2022/12/02 01:10:20;;;;;;;;;;;3.10;99.90;;;;;;5046731;27;19929;-68
2022/12/02 01:12:46;;;;;;;;;;;3.10;99.90;;;;;;5059564;28;19924;-65
2022/12/02 01:15:11;;;;;;;;;;;3.10;99.90;;;;;;5028585;28;20052;-66
2022/12/02 01:17:37;;;;;;;;;;;3.10;99.90;;;;;;5031776;28;20292;-65
2022/12/02 01:20:02;;;;;;;;;;;3.00;99.90;;;;;;5049632;28;19925;-65
2022/12/02 01:22:28;;;;;;;;;;;3.10;99.90;;;;;;5049978;28;19979;-65
2022/12/02 01:24:54;;;;;;;;;;;3.10;99.90;;;;;;5043650;27;19929;-65
2022/12/02 01:27:20;;;;;;;;;;;3.10;99.90;;;;;;5050857;28;19976;-65
2022/12/02 01:29:45;;;;;;;;;;;3.60;99.90;;;;;;5047585;28;19972;-66
2022/12/02 01:32:11;;;;;;;;;;;3.10;99.90;;;;;;5056498;28;20461;-65
2022/12/02 01:34:36;;;;;;;;;;;3.10;99.90;;;;;;5020234;28;20332;-65
2022/12/02 01:37:02;;;;;;;;;;;3.80;99.90;;;;;;5039381;28;19932;-64
2022/12/02 01:39:27;;;;;;;;;;;3.00;99.90;;;;;;5053665;28;19936;-64
2022/12/02 01:41:53;;;;;;;;;;;3.00;99.90;;;;;;5070423;28;19929;-64
2022/12/02 01:44:19;;;;;;;;;;;3.00;99.90;;;;;;5023153;28;19925;-65
2022/12/02 01:46:44;;;;;;;;;;;3.00;99.90;;;;;;5036432;28;20070;-65
2022/12/02 01:49:10;;;;;;;;;;;3.00;99.90;;;;;;5058807;28;19925;-65
2022/12/02 01:51:36;;;;;;;;;;;3.00;99.90;;;;;;5036302;28;19995;-65
2022/12/02 01:54:02;;;;;;;;;;;3.00;99.90;;;;;;5047554;28;20401;-65
2022/12/02 01:56:27;;;;;;;;;;;3.10;99.90;;;;;;5056610;28;20271;-70
2022/12/02 01:58:53;;;;;;;;;;;3.00;99.90;;;;;;5046705;28;19932;-67
2022/12/02 02:01:26;;;;;;;;;;;3.00;99.90;;;;;;5047768;27;19924;-65
2022/12/02 02:03:52;;;;;;;;;;;3.00;99.90;;;;;;5040162;27;19935;-65
2022/12/02 02:06:17;;;;;;;;;;;3.00;99.90;;;;;;5015227;28;19926;-73
2022/12/02 02:08:43;;;;;;;;;;;3.00;99.90;;;;;;5028153;28;19964;-70
2022/12/02 02:11:09;;;;;;;;;;;2.90;99.90;;;;;;5061736;28;20393;-70
2022/12/02 02:13:34;;;;;;;;;;;3.00;99.90;;;;;;5011717;28;19930;-71
2022/12/02 02:16:00;;;;;;;;;;;2.90;99.90;;;;;;5028503;28;19929;-69
2022/12/02 02:18:25;;;;;;;;;;;3.00;99.90;;;;;;5044861;28;20418;-69
2022/12/02 02:20:52;;;;;;;;;;;2.90;99.90;;;;;;5044236;28;20004;-70
2022/12/02 02:23:22;;;;;;;;;;;2.90;99.90;;;;;;5029270;28;20046;-71
2022/12/02 02:25:50;;;;;;;;;;;2.90;99.90;;;;;;5029229;28;19926;-70
2022/12/02 02:28:16;;;;;;;;;;;2.90;99.90;;;;;;5028163;28;19932;-70
2022/12/02 02:30:41;;;;;;;;;;;2.90;99.90;;;;;;5029345;28;20243;-71
2022/12/02 02:33:08;;;;;;;;;;;2.90;99.90;;;;;;4995153;28;19926;-70
2022/12/02 02:35:35;;;;;;;;;;;2.90;99.90;;;;;;5028976;28;19925;-76
2022/12/02 02:38:01;;;;;;;;;;;2.90;99.90;;;;;;5029516;28;20306;-70
2022/12/02 02:40:27;;;;;;;;;;;2.90;99.90;;;;;;5011611;28;19925;-70
2022/12/02 02:42:56;;;;;;;;;;;2.90;99.90;;;;;;5027626;28;20061;-70
2022/12/02 02:45:24;;;;;;;;;;;2.90;99.90;;;;;;5029187;28;19969;-69
2022/12/02 02:47:50;;;;;;;;;;;2.90;99.90;;;;;;5011020;28;19977;-73
2022/12/02 02:50:16;;;;;;;;;;;2.80;99.90;;;;;;5028065;28;20025;-70
2022/12/02 02:52:42;;;;;;;;;;;2.90;99.90;;;;;;5044245;28;20009;-71
2022/12/02 02:55:09;;;;;;;;;;;3.30;99.90;;;;;;5046512;28;20481;-70
2022/12/02 02:57:35;;;;;;;;;;;2.90;99.90;;;;;;5048322;28;19976;-75
2022/12/02 03:00:01;;;;;;;;;;;2.90;99.90;;;;;;5032036;28;19925;-70
2022/12/02 03:02:27;;;;;;;;;;;3.40;99.90;;;;;;5015201;28;19932;-70
2022/12/02 03:04:53;;;;;;;;;;;2.80;99.90;;;;;;5032190;28;19931;-73
2022/12/02 03:07:19;;;;;;;;;;;2.80;99.90;;;;;;5031198;28;20296;-69
2022/12/02 03:09:45;;;;;;;;;;;2.80;99.90;;;;;;5031708;28;20028;-69
2022/12/02 03:12:10;;;;;;;;;;;2.80;99.90;;;;;;5031212;28;20029;-71
2022/12/02 03:14:36;;;;;;;;;;;3.00;99.90;;;;;;5047614;28;19929;-70
2022/12/02 03:17:02;;;;;;;;;;;2.70;99.90;;;;;;5031022;28;19940;-70
2022/12/02 03:19:29;;;;;;;;;;;2.70;99.90;;;;;;5030738;28;20016;-71
2022/12/02 03:21:55;;;;;;;;;;;2.70;99.90;;;;;;5014499;28;19929;-70
2022/12/02 03:24:20;;;;;;;;;;;2.60;99.90;;;;;;5047403;28;19932;-69
2022/12/02 03:26:46;;;;;;;;;;;2.60;99.90;;;;;;5047151;28;20390;-70
2022/12/02 03:29:12;;;;;;;;;;;2.60;99.90;;;;;;5047118;28;19925;-69
2022/12/02 03:31:38;;;;;;;;;;;2.60;99.90;;;;;;5030222;28;20020;-70
2022/12/02 03:34:04;;;;;;;;;;;2.70;99.90;;;;;;5046845;28;19981;-70
2022/12/02 03:36:30;;;;;;;;;;;2.60;99.90;;;;;;5014074;28;19925;-69
2022/12/02 03:38:56;;;;;;;;;;;2.60;99.90;;;;;;5013711;28;20403;-71
2022/12/02 03:41:22;;;;;;;;;;;2.60;99.90;;;;;;5046900;28;20323;-70
2022/12/02 03:43:48;;;;;;;;;;;2.60;99.90;;;;;;5013845;28;19925;-70
2022/12/02 03:46:14;;;;;;;;;;;2.70;99.90;;;;;;5046642;28;20495;-69
2022/12/02 03:48:39;;;;;;;;;;;2.60;99.90;;;;;;5031269;28;19932;-74
2022/12/02 03:51:05;;;;;;;;;;;2.60;99.90;;;;;;5030119;28;19925;-70
2022/12/02 03:53:32;;;;;;;;;;;2.50;99.90;;;;;;5030097;28;19929;-72
2022/12/02 03:56:01;;;;;;;;;;;2.70;99.90;;;;;;5029422;28;20397;-70
2022/12/02 03:58:52;;;;;;;;;;;2.60;99.90;;;;;;5031545;28;19932;-71
2022/12/02 04:01:19;;;;;;;;;;;2.60;99.90;;;;;;5016335;28;19980;-70
2022/12/02 04:03:45;;;;;;;;;;;2.60;99.90;;;;;;5031425;28;19936;-75
2022/12/02 04:06:11;;;;;;;;;;;2.70;99.90;;;;;;5028871;28;19925;-69
2022/12/02 04:08:37;;;;;;;;;;;2.60;99.90;;;;;;5031428;28;20293;-70
2022/12/02 04:11:02;;;;;;;;;;;2.60;99.90;;;;;;4997422;28;19970;-71
2022/12/02 04:13:28;;;;;;;;;;;2.60;99.90;;;;;;5014010;28;20282;-71
2022/12/02 04:15:54;;;;;;;;;;;2.60;99.90;;;;;;5045819;28;19926;-70
2022/12/02 04:18:19;;;;;;;;;;;2.60;99.90;;;;;;5031344;28;19925;-70
2022/12/02 04:20:45;;;;;;;;;;;2.60;99.90;;;;;;5013861;28;20016;-70
2022/12/02 04:23:10;;;;;;;;;;;2.80;99.90;;;;;;5062946;28;19925;-70
2022/12/02 04:25:36;;;;;;;;;;;2.60;99.90;;;;;;5063408;28;19925;-73
2022/12/02 04:28:02;;;;;;;;;;;2.50;99.90;;;;;;5062995;28;19925;-70
2022/12/02 04:30:27;;;;;;;;;;;2.60;99.90;;;;;;5046729;28;20038;-70
2022/12/02 04:32:53;;;;;;;;;;;2.50;99.90;;;;;;5045785;28;20382;-70
2022/12/02 04:35:18;;;;;;;;;;;2.50;99.90;;;;;;5062942;28;19925;-70
2022/12/02 04:37:44;;;;;;;;;;;3.20;99.90;;;;;;5046672;28;20294;-71
2022/12/02 04:40:10;;;;;;;;;;;2.50;99.90;;;;;;5013224;28;20481;-71
2022/12/02 04:42:36;;;;;;;;;;;2.60;99.90;;;;;;5046642;28;19971;-71
2022/12/02 04:45:02;;;;;;;;;;;2.60;99.90;;;;;;5045743;28;20358;-71
2022/12/02 04:47:27;;;;;;;;;;;2.50;99.90;;;;;;5029916;28;19932;-69
2022/12/02 04:49:53;;;;;;;;;;;2.50;99.90;;;;;;5045928;28;19925;-73
2022/12/02 04:52:18;;;;;;;;;;;2.50;99.90;;;;;;5029825;28;19925;-70
2022/12/02 04:54:44;;;;;;;;;;;2.50;99.90;;;;;;5013280;28;19929;-70
2022/12/02 04:57:10;;;;;;;;;;;2.50;99.90;;;;;;5046080;28;20011;-70
2022/12/02 04:59:35;;;;;;;;;;;2.50;99.90;;;;;;5030112;28;20451;-69
2022/12/02 05:02:01;;;;;;;;;;;2.60;99.90;;;;;;5029795;28;19925;-69
2022/12/02 05:04:26;;;;;;;;;;;2.50;99.90;;;;;;5045842;28;19925;-70
2022/12/02 05:06:52;;;;;;;;;;;2.70;99.90;;;;;;5045933;28;20255;-75
2022/12/02 05:09:18;;;;;;;;;;;2.50;99.90;;;;;;5045293;28;20061;-71
2022/12/02 05:11:43;;;;;;;;;;;2.50;99.90;;;;;;5030328;28;19929;-71
2022/12/02 05:14:09;;;;;;;;;;;2.50;99.90;;;;;;5045316;28;20410;-70
2022/12/02 05:16:34;;;;;;;;;;;2.40;99.90;;;;;;5044857;28;19929;-71
2022/12/02 05:19:00;;;;;;;;;;;2.50;99.90;;;;;;5012269;28;19925;-70
2022/12/02 05:21:26;;;;;;;;;;;2.40;99.90;;;;;;5045549;28;20282;-71
2022/12/02 05:23:51;;;;;;;;;;;2.40;99.90;;;;;;5045000;28;19925;-69
2022/12/02 05:26:17;;;;;;;;;;;2.70;99.90;;;;;;5045094;28;19925;-71
2022/12/02 05:28:42;;;;;;;;;;;2.50;99.90;;;;;;5045959;28;19948;-71
2022/12/02 05:31:08;;;;;;;;;;;2.40;99.90;;;;;;5045451;28;19972;-70
2022/12/02 05:33:34;;;;;;;;;;;2.60;99.90;;;;;;5028892;28;19929;-69
2022/12/02 05:35:59;;;;;;;;;;;2.50;99.90;;;;;;5045120;28;19926;-70
2022/12/02 05:38:25;;;;;;;;;;;2.50;99.90;;;;;;5028771;28;19977;-69
2022/12/02 05:40:53;;;;;;;;;;;2.50;99.90;;;;;;5012500;28;19925;-70
2022/12/02 05:43:19;;;;;;;;;;;2.60;99.90;;;;;;5028159;28;19921;-70
2022/12/02 05:45:45;;;;;;;;;;;2.50;99.90;;;;;;4995598;28;19932;-70
2022/12/02 05:48:12;;;;;;;;;;;2.60;99.90;;;;;;5011829;28;19933;-70
2022/12/02 05:50:38;;;;;;;;;;;3.30;99.90;;;;;;5045266;28;19925;-70
2022/12/02 05:53:04;;;;;;;;;;;2.50;99.90;;;;;;5044665;28;19932;-70
2022/12/02 05:55:29;;;;;;;;;;;2.60;99.90;;;;;;5044872;28;19948;-69
2022/12/02 05:57:59;;;;;;;;;;;2.50;99.90;;;;;;5027909;28;20159;-68
2022/12/02 06:00:25;;;;;;;;;;;2.50;99.90;;;;;;5027818;28;20385;-71
2022/12/02 06:02:57;;;;;;;;;;;2.50;99.90;;;;;;5044908;28;19928;-70
2022/12/02 06:05:24;;;;;;;;;;;2.50;99.90;;;;;;5011436;28;20404;-70
2022/12/02 06:07:55;;;;;;;;;;;2.50;99.90;;;;;;5029461;28;19933;-70
2022/12/02 06:10:26;;;;;;;;;;;2.50;99.90;;;;;;5028202;28;20601;-69
2022/12/02 06:12:53;;;;;;;;;;;2.50;99.90;;;;;;5012095;28;20000;-71
2022/12/02 06:15:18;;;;;;;;;;;2.50;99.90;;;;;;5028901;28;19983;-72
2022/12/02 06:17:44;;;;;;;;;;;2.50;99.90;;;;;;5028172;28;20390;-70
2022/12/02 06:20:29;;;;;;;;;;;2.50;99.90;;;;;;5027742;28;20274;-71
2022/12/02 06:22:55;;;;;;;;;;;2.50;99.90;;;;;;5027974;28;19976;-71
2022/12/02 06:25:26;;;;;;;;;;;2.50;99.90;;;;;;5044216;28;20273;-74
2022/12/02 06:27:53;;;;;;;;;;;2.50;99.90;;;;;;5011743;28;19932;-69
2022/12/02 06:30:18;;;;;;;;;;;2.50;99.90;;;;;;4994259;28;19925;-69
2022/12/02 06:32:49;;;;;;;;;;;2.50;99.90;;;;;;5027553;28;20404;-73
2022/12/02 06:35:32;;;;;;;;;;;2.50;99.90;;;;;;5028522;28;19980;-70
2022/12/02 06:37:59;;;;;;;;;;;2.40;99.90;;;;;;5027798;28;19986;-69
2022/12/02 06:40:27;;;;;;;;;;;2.50;99.90;;;;;;5043943;28;19932;-71
2022/12/02 06:42:55;;;;;;;;;;;2.50;99.90;;;;;;5029054;28;19925;-69
2022/12/02 06:45:27;;;;;;;;;;;2.50;99.90;;;;;;5024310;28;19925;-69
2022/12/02 06:48:01;;;;;;;;;;;2.50;99.90;;;;;;5026588;28;19932;-69
2022/12/02 06:50:28;;;;;;;;;;;2.50;99.90;;;;;;5042639;28;19932;-69
2022/12/02 06:53:17;;;;;;;;;;;3.00;99.90;;;;;;5028624;28;19984;-69
2022/12/02 06:55:43;;;;;;;;;;;2.50;99.90;;;;;;5028346;28;20100;-70
2022/12/02 06:58:27;;;;;;;;;;;2.50;99.90;;;;;;5028591;28;19978;-74
2022/12/02 07:00:53;;;;;;;;;;;2.50;99.90;;;;;;5027138;28;19925;-70
2022/12/02 07:03:28;;;;;;;;;;;2.50;99.90;;;;;;5043940;28;20027;-71
2022/12/02 07:05:54;;;;;;;;;;;2.50;99.90;;;;;;5011251;28;20024;-70
2022/12/02 07:08:20;;;;;;;;;;;2.60;99.90;;;;;;5043746;28;20370;-69
2022/12/02 07:10:45;;;;;;;;;;;2.50;99.90;;;;;;5060913;28;19971;-71
2022/12/02 07:13:15;;;;;;;;;;;2.60;99.90;;;;;;5060496;27;19925;-74
2022/12/02 07:15:41;;;;;;;;;;;2.60;99.90;;;;;;5010635;28;19926;-71
2022/12/02 07:18:09;;;;;;;;;;;2.60;99.90;;;;;;5043981;28;20331;-69
2022/12/02 07:20:36;;;;;;;;;;;2.70;99.90;;;;;;5044145;28;19925;-70
2022/12/02 07:23:11;;;;;;;;;;;2.70;99.90;;;;;;5011040;28;19925;-72
2022/12/02 07:25:41;;;;;;;;;;;2.70;99.90;;;;;;5044001;28;19925;-70
2022/12/02 07:28:19;;;;;;;;;;;2.70;99.90;;;;;;5043973;28;19925;-70
2022/12/02 07:30:47;;;;;;;;;;;2.70;99.90;;;;;;5044214;28;20412;-70
2022/12/02 07:33:13;;;;;;;;;;;2.80;99.90;;;;;;5044143;28;19925;-73
2022/12/02 07:35:38;;;;;;;;;;;2.70;99.90;;;;;;5044121;28;19925;-71
2022/12/02 07:38:04;;;;;;;;;;;2.70;99.90;;;;;;5044138;28;19947;-69
2022/12/02 07:40:29;;;;;;;;;;;2.70;99.90;;;;;;5028949;28;20029;-70
2022/12/02 07:42:55;;;;;;;;;;;2.70;99.90;;;;;;5030372;28;19929;-70
2022/12/02 07:45:21;;;;;;;;;;;2.80;99.90;;;;;;5063242;28;19925;-70
2022/12/02 07:47:46;;;;;;;;;;;2.70;99.90;;;;;;5047071;28;19935;-69
2022/12/02 07:50:13;;;;;;;;;;;2.80;99.90;;;;;;5047286;28;19925;-69
2022/12/02 07:52:39;;;;;;;;;;;2.70;99.90;;;;;;5013375;28;19932;-70
2022/12/02 07:55:05;;;;;;;;;;;2.70;99.90;;;;;;5046999;28;19925;-69
2022/12/02 07:57:30;;;;;;;;;;;2.70;99.90;;;;;;5013330;28;20351;-69
2022/12/02 07:59:56;;;;;;;;;;;2.70;99.90;;;;;;5029726;28;19925;-71
2022/12/02 08:02:22;;;;;;;;;;;2.70;99.90;;;;;;5062960;28;19955;-72
2022/12/02 08:04:47;;;;;;;;;;;2.70;99.90;;;;;;5031183;28;20024;-70
2022/12/02 08:07:13;;;;;;;;;;;2.60;99.90;;;;;;5047261;28;20008;-70
2022/12/02 08:09:38;;;;;;;;;;;2.60;99.90;;;;;;5046414;28;19932;-70
2022/12/02 08:12:04;;;;;;;;;;;2.60;99.90;;;;;;5014000;28;19983;-70
2022/12/02 08:14:30;;;;;;;;;;;2.60;99.90;;;;;;5029651;28;20315;-69
2022/12/02 08:16:55;;;;;;;;;;;2.50;99.90;;;;;;5031208;28;20016;-73
2022/12/02 08:19:21;;;;;;;;;;;2.50;99.90;;;;;;5063042;28;19926;-70
2022/12/02 08:21:47;;;;;;;;;;;2.40;99.90;;;;;;5046821;28;20298;-72
2022/12/02 08:24:12;;;;;;;;;;;2.40;99.90;;;;;;5047188;28;19925;-69
2022/12/02 08:26:38;;;;;;;;;;;2.40;99.90;;;;;;5012866;28;19921;-71
2022/12/02 08:29:04;;;;;;;;;;;2.30;99.90;;;;;;5013551;28;19988;-69
2022/12/02 08:31:29;;;;;;;;;;;2.30;99.90;;;;;;5046164;28;19925;-70
2022/12/02 08:33:55;;;;;;;;;;;2.20;99.90;;;;;;5029855;28;20349;-69
2022/12/02 08:36:21;;;;;;;;;;;2.20;99.90;;;;;;5062467;28;19932;-75
2022/12/02 08:38:47;;;;;;;;;;;2.10;99.90;;;;;;5031034;28;19925;-73
2022/12/02 08:41:13;;;;;;;;;;;2.10;99.90;;;;;;5029880;28;19933;-69
2022/12/02 08:43:39;;;;;;;;;;;2.10;99.90;;;;;;5029444;28;19929;-70
2022/12/02 08:46:05;;;;;;;;;;;2.10;99.90;;;;;;5046121;28;20024;-71
2022/12/02 08:48:31;;;;;;;;;;;2.10;99.90;;;;;;5030437;28;20077;-69
2022/12/02 08:50:56;;;;;;;;;;;2.40;99.90;;;;;;4995809;28;20008;-71
2022/12/02 08:53:22;;;;;;;;;;;2.40;99.90;;;;;;5044756;28;19921;-71
2022/12/02 08:55:48;;;;;;;;;;;2.00;99.90;;;;;;5045633;28;19925;-70
2022/12/02 08:58:13;;;;;;;;;;;1.90;99.90;;;;;;5045553;28;19925;-70
2022/12/02 09:00:39;;;;;;;;;;;1.90;99.90;;;;;;5045474;28;19925;-71
2022/12/02 09:03:06;;;;;;;;;;;1.90;99.90;;;;;;5028703;28;19926;-70
2022/12/02 09:05:32;;;;;;;;;;;1.90;99.90;;;;;;5045701;28;19925;-70
2022/12/02 09:07:57;;;;;;;;;;;2.30;99.90;;;;;;5045706;28;19925;-69
2022/12/02 09:10:23;;;;;;;;;;;1.90;99.90;;;;;;5045701;28;19925;-70
2022/12/02 09:12:48;;;;;;;;;;;1.90;99.90;;;;;;5045775;28;19978;-69
2022/12/02 09:15:14;;;;;;;;;;;1.90;99.90;;;;;;5029121;28;19933;-69
2022/12/02 09:17:39;;;;;;;;;;;1.90;99.90;;;;;;5028832;28;20023;-69
2022/12/02 09:20:05;;;;;;;;;;;1.90;99.90;;;;;;5029984;28;19925;-70
2022/12/02 09:22:31;;;;;;;;;;;1.90;99.90;;;;;;5028958;28;19925;-70
2022/12/02 09:24:57;;;;;;;;;;;2.20;99.90;;;;;;5029940;28;20466;-68
2022/12/02 09:27:22;;;;;;;;;;;2.10;99.90;;;;;;5045884;28;19978;-68
2022/12/02 09:29:48;;;;;;;;;;;1.90;99.90;;;;;;5029876;28;19925;-69
2022/12/02 09:32:14;;;;;;;;;;;1.80;99.90;;;;;;5045482;28;19935;-68
2022/12/02 09:34:39;;;;;;;;;;;1.80;99.90;;;;;;5028269;28;19969;-68
2022/12/02 09:37:05;;;;;;;;;;;1.90;99.90;;;;;;5062306;28;20017;-69
2022/12/02 09:39:30;;;;;;;;;;;1.90;99.90;;;;;;5045307;28;20065;-68
2022/12/02 09:41:56;;;;;;;;;;;1.90;99.90;;;;;;5030086;28;19974;-72
2022/12/02 09:44:22;;;;;;;;;;;2.10;99.90;;;;;;5062436;28;19993;-73
2022/12/02 09:46:48;;;;;;;;;;;1.90;99.90;;;;;;5028740;28;20365;-73
2022/12/02 09:49:14;;;;;;;;;;;1.90;99.90;;;;;;4996532;28;19982;-72
2022/12/02 09:51:39;;;;;;;;;;;1.90;99.90;;;;;;5012273;28;19976;-72
2022/12/02 09:54:05;;;;;;;;;;;2.40;99.90;;;;;;5045312;28;19974;-72
2022/12/02 09:56:31;;;;;;;;;;;2.00;99.90;;;;;;5028216;28;19989;-75
2022/12/02 09:58:56;;;;;;;;;;;2.00;99.90;;;;;;5028890;28;19921;-71
2022/12/02 10:01:23;;;;;;;;;;;2.20;99.90;;;;;;5028780;28;19989;-72
2022/12/02 10:03:49;;;;;;;;;;;2.00;99.90;;;;;;5044887;28;19925;-72
2022/12/02 10:06:22;;;;;;;;;;;2.10;99.90;;;;;;5028937;28;20008;-72
2022/12/02 10:08:48;;;;;;;;;;;2.10;99.90;;;;;;5029546;28;19932;-70
2022/12/02 10:11:21;;;;;;;;;;;2.20;99.90;;;;;;5045633;28;19926;-72
2022/12/02 10:13:48;;;;;;;;;;;2.20;99.90;;;;;;4995743;28;19925;-73
2022/12/02 10:16:14;;;;;;;;;;;2.20;99.90;;;;;;5029864;28;19977;-71
2022/12/02 10:18:41;;;;;;;;;;;2.70;99.90;;;;;;4995760;28;19925;-71
2022/12/02 10:21:06;;;;;;;;;;;2.20;99.90;;;;;;5028506;28;19925;-71
2022/12/02 10:23:32;;;;;;;;;;;2.20;99.90;;;;;;5012219;28;20231;-72
2022/12/02 10:26:13;;;;;;;;;;;2.20;99.90;;;;;;5044819;28;19929;-72
2022/12/02 10:28:40;;;;;;;;;;;2.20;99.90;;;;;;5043890;28;19994;-72
2022/12/02 10:31:11;;;;;;;;;;;2.20;99.90;;;;;;5029691;28;19925;-72
2022/12/02 10:33:39;;;;;;;;;;;2.20;99.90;;;;;;5028146;28;20015;-72
2022/12/02 10:36:05;;;;;;;;;;;2.20;99.90;;;;;;5011817;28;19929;-72
2022/12/02 10:38:38;;;;;;;;;;;2.20;99.90;;;;;;5044951;28;20024;-72
2022/12/02 10:41:11;;;;;;;;;;;2.20;99.90;;;;;;5044997;28;19925;-77
2022/12/02 10:43:37;;;;;;;;;;;2.20;99.90;;;;;;4995501;28;20019;-78
2022/12/02 10:46:02;;;;;;;;;;;2.20;99.90;;;;;;4995689;28;19979;-76
2022/12/02 10:48:28;;;;;;;;;;;2.30;99.90;;;;;;5030774;28;19926;-77
2022/12/02 10:50:54;;;;;;;;;;;2.30;99.90;;;;;;5048864;28;19929;-76
2022/12/02 10:53:24;;;;;;;;;;;2.20;99.90;;;;;;5048154;28;19965;-77
2022/12/02 10:55:49;;;;;;;;;;;2.20;99.90;;;;;;5048049;28;19932;-76
2022/12/02 10:58:18;;;;;;;;;;;2.20;99.90;;;;;;5028467;28;20020;-78
2022/12/02 11:00:44;;;;;;;;;;;2.20;99.90;;;;;;5044581;28;19934;-77
2022/12/02 11:03:10;;;;;;;;;;;2.30;99.90;;;;;;5044633;28;20386;-77
2022/12/02 11:05:36;;;;;;;;;;;2.60;99.90;;;;;;5028626;28;19929;-77
2022/12/02 11:08:21;;;;;;;;;;;2.30;99.90;;;;;;5061135;28;20016;-73
2022/12/02 11:10:48;;;;;;;;;;;2.30;99.90;;;;;;5027781;28;19926;-75
2022/12/02 11:13:16;;;;;;;;;;;2.30;99.90;;;;;;5044685;28;19926;-77
2022/12/02 11:15:47;;;;;;;;;;;2.40;99.90;;;;;;5045865;28;19925;-77
2022/12/02 11:18:21;;;;;;;;;;;2.40;99.90;;;;;;5048289;28;19944;-77
2022/12/02 11:20:51;;;;;;;;;;;2.40;99.90;;;;;;5047782;28;19932;-78
2022/12/02 11:23:17;;;;;;;;;;;2.40;99.90;;;;;;5048243;28;19933;-78
2022/12/02 11:25:42;;;;;;;;;;;3.00;99.90;;;;;;5064504;27;19929;-77
2022/12/02 11:28:34;;;;;;;;;;;2.40;99.90;;;;;;5047678;28;19990;-77
2022/12/02 11:31:09;;;;;;;;;;;2.40;99.90;;;;;;5006019;28;19981;-76
2022/12/02 11:33:47;;;;;;;;;;;2.50;99.90;;;;;;5049452;28;20015;-76
2022/12/02 11:36:14;;;;;;;;;;;2.50;99.90;;;;;;5030994;28;19925;-75
2022/12/02 11:38:49;;;;;;;;;;;2.50;99.90;;;;;;5032420;28;20313;-75
2022/12/02 11:41:15;;;;;;;;;;;2.50;99.90;;;;;;5047785;28;19925;-74
2022/12/02 11:43:40;;;;;;;;;;;2.60;99.90;;;;;;5047378;28;20017;-76
2022/12/02 11:46:06;;;;;;;;;;;3.00;99.90;;;;;;5047299;28;20031;-74
2022/12/02 11:48:32;;;;;;;;;;;3.00;99.90;;;;;;5031146;28;20338;-74
2022/12/02 11:50:57;;;;;;;;;;;2.60;99.90;;;;;;5030766;28;19987;-75
2022/12/02 11:53:23;;;;;;;;;;;2.60;99.90;;;;;;5030853;28;19932;-75
2022/12/02 11:55:50;;;;;;;;;;;2.60;99.90;;;;;;5030169;28;20262;-76
2022/12/02 11:58:16;;;;;;;;;;;2.60;99.90;;;;;;5030686;28;19978;-74
2022/12/02 12:00:58;;;;;;;;;;;2.60;99.90;;;;;;5030784;28;19925;-74
2022/12/02 12:03:24;;;;;;;;;;;2.60;99.90;;;;;;5023829;27;19995;-75
2022/12/02 12:06:10;;;;;;;;;;;2.70;99.90;;;;;;5023985;28;20016;-77
2022/12/02 12:08:36;;;;;;;;;;;2.70;99.90;;;;;;5024078;28;19926;-75
2022/12/02 12:11:21;;;;;;;;;;;2.70;99.90;;;;;;5007688;28;19949;-73
2022/12/02 12:13:59;;;;;;;;;;;2.80;99.90;;;;;;5007703;28;19926;-74
2022/12/02 12:16:25;;;;;;;;;;;2.70;99.90;;;;;;5023659;28;19984;-72
2022/12/02 12:18:51;;;;;;;;;;;2.70;99.90;;;;;;5007614;28;19930;-75
2022/12/02 12:21:29;;;;;;;;;;;2.70;99.90;;;;;;4959021;28;19976;-75
2022/12/02 12:23:54;;;;;;;;;;;2.70;99.90;;;;;;4974521;28;19987;-75
2022/12/02 12:26:33;;;;;;;;;;;2.70;99.90;;;;;;4990902;28;20352;-75
2022/12/02 12:29:03;;;;;;;;;;;2.70;99.90;;;;;;5023515;28;19926;-75
2022/12/02 12:31:28;;;;;;;;;;;2.70;99.90;;;;;;4992074;28;19926;-75
2022/12/02 12:33:54;;;;;;;;;;;2.70;99.90;;;;;;5023498;28;19933;-76
2022/12/02 12:36:19;;;;;;;;;;;2.60;99.90;;;;;;4990984;28;19995;-74
2022/12/02 12:38:45;;;;;;;;;;;2.70;99.90;;;;;;5007221;28;19984;-74
2022/12/02 12:41:10;;;;;;;;;;;2.60;99.90;;;;;;4990121;28;19975;-74
2022/12/02 12:43:36;;;;;;;;;;;2.60;99.90;;;;;;5023710;28;19926;-74
2022/12/02 12:46:02;;;;;;;;;;;2.60;99.90;;;;;;4990924;28;20112;-75
2022/12/02 12:48:27;;;;;;;;;;;2.50;99.90;;;;;;5024395;28;20266;-76
2022/12/02 12:50:53;;;;;;;;;;;2.50;99.90;;;;;;4993457;28;19925;-74
2022/12/02 12:53:18;;;;;;;;;;;2.50;99.90;;;;;;4991634;28;19977;-75
2022/12/02 12:55:44;;;;;;;;;;;2.50;99.90;;;;;;5023316;28;19930;-75
2022/12/02 12:58:09;;;;;;;;;;;2.40;99.90;;;;;;4958172;28;19932;-76
2022/12/02 13:00:35;;;;;;;;;;;2.40;99.90;;;;;;4990688;28;19925;-73
2022/12/02 13:03:01;;;;;;;;;;;2.40;99.90;;;;;;4992997;28;20019;-79
2022/12/02 13:05:26;;;;;;;;;;;2.40;99.90;;;;;;5030882;28;19926;-74
2022/12/02 13:07:52;;;;;;;;;;;2.40;99.90;;;;;;5013274;28;20439;-76
2022/12/02 13:10:17;;;;;;;;;;;2.50;99.90;;;;;;5062449;28;20165;-74
2022/12/02 13:12:43;;;;;;;;;;;2.40;99.90;;;;;;5013562;28;20015;-75
2022/12/02 13:15:09;;;;;;;;;;;2.90;99.90;;;;;;5062533;28;20014;-79
2022/12/02 13:17:34;;;;;;;;;;;2.40;99.90;;;;;;5030900;28;19936;-74
2022/12/02 13:20:00;;;;;;;;;;;2.90;99.90;;;;;;5030299;28;19987;-83
2022/12/02 13:22:25;;;;;;;;;;;2.30;99.90;;;;;;5029793;28;20011;-74
2022/12/02 13:24:51;;;;;;;;;;;2.40;99.90;;;;;;5030241;28;19925;-74
2022/12/02 13:27:16;;;;;;;;;;;2.60;99.90;;;;;;5029401;28;19925;-76
2022/12/02 13:29:42;;;;;;;;;;;2.40;99.90;;;;;;5062426;28;19976;-70
2022/12/02 13:32:08;;;;;;;;;;;2.50;99.90;;;;;;5045719;28;19926;-68
2022/12/02 13:34:33;;;;;;;;;;;2.30;99.90;;;;;;5045483;28;19932;-69
2022/12/02 13:36:59;;;;;;;;;;;2.30;99.90;;;;;;5045472;28;20407;-72
2022/12/02 13:39:24;;;;;;;;;;;2.30;99.90;;;;;;5029296;28;19929;-70
2022/12/02 13:41:50;;;;;;;;;;;2.30;99.90;;;;;;5045173;28;19932;-70
2022/12/02 13:44:15;;;;;;;;;;;2.50;99.90;;;;;;5028294;28;20040;-70
2022/12/02 13:46:41;;;;;;;;;;;2.30;99.90;;;;;;5028521;28;19932;-70
2022/12/02 13:49:07;;;;;;;;;;;2.30;99.90;;;;;;5044996;28;20502;-74
2022/12/02 13:51:32;;;;;;;;;;;2.30;99.90;;;;;;5046068;28;19932;-74
2022/12/02 13:53:58;;;;;;;;;;;2.30;99.90;;;;;;5045819;28;19940;-75
2022/12/02 13:56:23;;;;;;;;;;;2.30;99.90;;;;;;5062510;28;19975;-74
2022/12/02 13:58:51;;;;;;;;;;;2.20;99.90;;;;;;5062663;28;19925;-75
2022/12/02 14:01:16;;;;;;;;;;;2.20;99.90;;;;;;5045295;28;19925;-75
2022/12/02 14:03:42;;;;;;;;;;;2.20;99.90;;;;;;5045667;28;20041;-77
2022/12/02 14:06:08;;;;;;;;;;;2.20;99.90;;;;;;5047926;28;19922;-75
2022/12/02 14:08:33;;;;;;;;;;;2.20;99.90;;;;;;5033570;28;19936;-71
2022/12/02 14:10:59;;;;;;;;;;;2.20;99.90;;;;;;5031202;28;19925;-75
2022/12/02 14:13:24;;;;;;;;;;;2.20;99.90;;;;;;5030111;28;19925;-75
2022/12/02 14:15:50;;;;;;;;;;;2.20;99.90;;;;;;5045426;28;20036;-75
2022/12/02 14:18:15;;;;;;;;;;;2.20;99.90;;;;;;5045300;28;20005;-78
2022/12/02 14:20:41;;;;;;;;;;;2.30;99.90;;;;;;5063713;28;20023;-76
2022/12/02 14:23:13;;;;;;;;;;;2.20;99.90;;;;;;5062723;28;20281;-77
2022/12/02 14:25:38;;;;;;;;;;;2.30;99.90;;;;;;5029511;28;19925;-76
2022/12/02 14:28:04;;;;;;;;;;;2.30;99.90;;;;;;5045526;28;20366;-77
2022/12/02 14:30:30;;;;;;;;;;;2.30;99.90;;;;;;5028881;28;19946;-75
2022/12/02 14:32:55;;;;;;;;;;;2.30;99.90;;;;;;5028975;28;19925;-76
2022/12/02 14:35:21;;;;;;;;;;;2.30;99.90;;;;;;5045341;28;19947;-77